createdAt,value
2022-08-21T00:02:20.486Z,99033.06
2022-08-21T00:04:54.584Z,99024.69
2022-08-21T00:07:24.453Z,99023.44
2022-08-21T00:09:52.533Z,99016.09
2022-08-21T00:12:19.239Z,99018.81
2022-08-21T00:14:45.990Z,99014.00
2022-08-21T00:17:13.377Z,99014.66
2022-08-21T00:19:40.638Z,99016.72
2022-08-21T00:22:07.324Z,99018.41
2022-08-21T00:24:33.883Z,99021.31
2022-08-21T00:27:00.413Z,99020.72
2022-08-21T00:29:26.989Z,99015.41
2022-08-21T00:31:53.569Z,99015.06
2022-08-21T00:34:20.172Z,99016.91
2022-08-21T00:36:46.819Z,99004.34
2022-08-21T00:39:13.376Z,99005.19
2022-08-21T00:41:40.741Z,99000.00
2022-08-21T00:44:09.565Z,98999.09
2022-08-21T00:46:37.172Z,99009.81
2022-08-21T00:49:04.424Z,99006.44
2022-08-21T00:51:39.098Z,99006.44
2022-08-21T00:54:10.796Z,99007.28
2022-08-21T00:56:45.679Z,99017.16
2022-08-21T00:59:12.425Z,99010.00
2022-08-21T01:01:39.083Z,99016.72
2022-08-21T01:04:05.998Z,99026.16
2022-08-21T01:06:32.582Z,99020.09
2022-08-21T01:08:59.269Z,99032.44
2022-08-21T01:11:26.038Z,99038.03
2022-08-21T01:13:53.303Z,99031.53
2022-08-21T01:16:22.382Z,99032.78
2022-08-21T01:18:50.023Z,99029.03
2022-08-21T01:21:21.137Z,99023.34
2022-08-21T01:23:51.271Z,99024.19
2022-08-21T01:26:33.734Z,99025.84
2022-08-21T01:29:22.628Z,99012.22
2022-08-21T01:31:49.979Z,99018.91
2022-08-21T01:34:17.109Z,99026.44
2022-08-21T01:36:45.375Z,99029.09
2022-08-21T01:39:12.097Z,99022.59
2022-08-21T01:41:38.598Z,99035.72
2022-08-21T01:44:05.307Z,99033.22
2022-08-21T01:46:32.347Z,99026.56
2022-08-21T01:48:59.108Z,99023.84
2022-08-21T01:51:26.475Z,99029.28
2022-08-21T01:53:52.953Z,99024.19
2022-08-21T01:56:19.632Z,99026.56
2022-08-21T01:58:48.152Z,99023.00
2022-08-21T02:01:15.470Z,99027.97
2022-08-21T02:03:42.723Z,99027.53
2022-08-21T02:06:15.827Z,99025.88
2022-08-21T02:08:42.410Z,99020.66
2022-08-21T02:11:08.921Z,99015.41
2022-08-21T02:13:35.656Z,99010.41
2022-08-21T02:16:02.310Z,99015.25
2022-08-21T02:18:28.859Z,99012.06
2022-08-21T02:20:56.269Z,99014.41
2022-08-21T02:23:27.263Z,99011.81
2022-08-21T02:25:58.834Z,99019.88
2022-08-21T02:28:25.427Z,99019.34
2022-08-21T02:30:55.699Z,99014.53
2022-08-21T02:33:22.310Z,99010.59
2022-08-21T02:35:49.889Z,99013.69
2022-08-21T02:38:19.933Z,99011.84
2022-08-21T02:40:51.052Z,99006.84
2022-08-21T02:43:18.981Z,99009.59
2022-08-21T02:45:46.003Z,99013.34
2022-08-21T02:48:16.052Z,99008.38
2022-08-21T02:50:49.602Z,99013.22
2022-08-21T02:53:17.714Z,99023.41
2022-08-21T02:55:49.293Z,99021.28
2022-08-21T02:58:19.662Z,99015.94
2022-08-21T03:00:47.704Z,99026.56
2022-08-21T03:03:15.725Z,99016.50
2022-08-21T03:05:46.194Z,99009.66
2022-08-21T03:08:14.349Z,99007.94
2022-08-21T03:10:44.458Z,99006.28
2022-08-21T03:13:12.214Z,99014.44
2022-08-21T03:15:39.301Z,99021.94
2022-08-21T03:18:06.340Z,99004.00
2022-08-21T03:20:33.587Z,99021.53
2022-08-21T03:23:00.946Z,99021.28
2022-08-21T03:25:39.785Z,99023.84
2022-08-21T03:28:13.348Z,99031.56
2022-08-21T03:30:42.738Z,99039.09
2022-08-21T03:33:12.314Z,99040.56
2022-08-21T03:35:43.450Z,99028.22
2022-08-21T03:38:10.426Z,99032.56
2022-08-21T03:40:37.459Z,99032.69
2022-08-21T03:43:04.096Z,99021.84
2022-08-21T03:45:30.785Z,99024.53
2022-08-21T03:48:03.305Z,99026.84
2022-08-21T03:50:41.027Z,99013.72
2022-08-21T03:53:21.290Z,99014.53
2022-08-21T03:55:56.252Z,99016.19
2022-08-21T03:58:46.126Z,99017.91
2022-08-21T04:01:25.309Z,99019.16
2022-08-21T04:04:03.525Z,99018.53
2022-08-21T04:06:47.136Z,99025.16
2022-08-21T04:09:16.006Z,99021.63
2022-08-21T04:11:44.561Z,99031.06
2022-08-21T04:14:17.316Z,99030.44
2022-08-21T04:16:51.592Z,99022.47
2022-08-21T04:19:21.020Z,99023.53
2022-08-21T04:22:01.121Z,99027.53
2022-08-21T04:24:30.821Z,99023.00
2022-08-21T04:26:57.590Z,99027.16
2022-08-21T04:29:40.029Z,99029.19
2022-08-21T04:32:13.114Z,99025.03
2022-08-21T04:34:48.952Z,99022.53
2022-08-21T04:37:18.899Z,99032.56
2022-08-21T04:39:49.297Z,99029.16
2022-08-21T04:42:21.656Z,99024.56
2022-08-21T04:44:51.129Z,99030.25
2022-08-21T04:47:52.507Z,99028.22
2022-08-21T04:50:29.691Z,99026.56
2022-08-21T04:53:06.385Z,99023.41
2022-08-21T04:55:36.351Z,99029.66
2022-08-21T04:58:06.865Z,99032.38
2022-08-21T05:00:37.214Z,99028.00
2022-08-21T05:03:08.953Z,99037.88
2022-08-21T05:05:38.656Z,99046.22
2022-08-21T05:08:11.707Z,99047.66
2022-08-21T05:10:42.126Z,99046.91
2022-08-21T05:13:09.552Z,99048.34
2022-08-21T05:15:43.879Z,99047.09
2022-08-21T05:18:11.302Z,99039.59
2022-08-21T05:20:41.339Z,99040.44
2022-08-21T05:23:19.468Z,99036.50
2022-08-21T05:25:46.759Z,99041.94
2022-08-21T05:28:15.786Z,99041.50
2022-08-21T05:30:45.298Z,99048.00
2022-08-21T05:33:17.803Z,99051.59
2022-08-21T05:35:44.937Z,99050.31
2022-08-21T05:38:18.041Z,99048.44
2022-08-21T05:40:48.747Z,99050.34
2022-08-21T05:43:16.615Z,99051.19
2022-08-21T05:45:47.507Z,99046.41
2022-08-21T05:48:18.219Z,99049.72
2022-08-21T05:50:47.538Z,99044.72
2022-08-21T05:53:16.085Z,99049.13
2022-08-21T05:55:46.270Z,99054.13
2022-08-21T05:58:15.130Z,99052.94
2022-08-21T06:00:58.909Z,99051.09
2022-08-21T06:03:31.762Z,99054.66
2022-08-21T06:05:59.171Z,99063.03
2022-08-21T06:08:30.264Z,99061.13
2022-08-21T06:10:59.451Z,99060.72
2022-08-21T06:13:32.542Z,99059.69
2022-08-21T06:16:16.206Z,99067.00
2022-08-21T06:18:44.712Z,99067.03
2022-08-21T06:21:12.624Z,99077.91
2022-08-21T06:23:39.405Z,99081.25
2022-08-21T06:26:08.114Z,99077.06
2022-08-21T06:28:36.361Z,99086.47
2022-08-21T06:31:10.372Z,99078.75
2022-08-21T06:33:36.924Z,99075.78
2022-08-21T06:36:04.145Z,99074.78
2022-08-21T06:38:35.911Z,99068.88
2022-08-21T06:41:06.185Z,99063.25
2022-08-21T06:43:39.702Z,99057.78
2022-08-21T06:46:07.096Z,99059.22
2022-08-21T06:48:34.333Z,99068.44
2022-08-21T06:51:02.086Z,99066.34
2022-08-21T06:53:28.758Z,99075.38
2022-08-21T06:55:55.350Z,99092.97
2022-08-21T06:58:21.891Z,99092.38
2022-08-21T07:00:52.155Z,99096.75
2022-08-21T07:03:45.001Z,99123.38
2022-08-21T07:06:12.036Z,99121.28
2022-08-21T07:08:39.675Z,99115.00
2022-08-21T07:11:12.147Z,99118.97
2022-08-21T07:13:38.753Z,99103.22
2022-08-21T07:16:05.522Z,99088.97
2022-08-21T07:18:32.406Z,99081.41
2022-08-21T07:20:58.952Z,99091.53
2022-08-21T07:23:34.478Z,99092.56
2022-08-21T07:26:01.569Z,99114.94
2022-08-21T07:28:29.104Z,99106.78
2022-08-21T07:30:58.284Z,99110.34
2022-08-21T07:33:27.276Z,99108.28
2022-08-21T07:35:53.957Z,99111.56
2022-08-21T07:38:20.908Z,99111.56
2022-08-21T07:40:48.527Z,99121.41
2022-08-21T07:43:17.768Z,99112.41
2022-08-21T07:45:44.334Z,99128.13
2022-08-21T07:48:11.144Z,99136.56
2022-08-21T07:50:37.724Z,99136.97
2022-08-21T07:53:05.149Z,99146.19
2022-08-21T07:55:31.861Z,99151.03
2022-08-21T07:57:58.377Z,99149.53
2022-08-21T08:00:26.942Z,99152.03
2022-08-21T08:02:55.095Z,99154.78
2022-08-21T08:05:25.242Z,99154.97
2022-08-21T08:07:52.122Z,99157.19
2022-08-21T08:10:19.700Z,99167.13
2022-08-21T08:12:47.312Z,99165.44
2022-08-21T08:15:18.879Z,99165.22
2022-08-21T08:17:45.377Z,99160.16
2022-08-21T08:20:14.307Z,99161.66
2022-08-21T08:22:51.677Z,99161.03
2022-08-21T08:25:20.257Z,99159.56
2022-08-21T08:27:47.497Z,99163.69
2022-08-21T08:30:15.990Z,99161.16
2022-08-21T08:32:43.021Z,99178.31
2022-08-21T08:35:11.105Z,99170.75
2022-08-21T08:37:39.316Z,99176.16
2022-08-21T08:40:21.671Z,99182.38
2022-08-21T08:42:48.653Z,99188.25
2022-08-21T08:45:19.380Z,99187.66
2022-08-21T08:47:52.827Z,99191.53
2022-08-21T08:50:26.704Z,99186.44
2022-08-21T08:53:09.667Z,99192.50
2022-08-21T08:55:41.615Z,99196.47
2022-08-21T08:58:13.399Z,99199.38
2022-08-21T09:00:40.206Z,99196.91
2022-08-21T09:03:10.145Z,99198.44
2022-08-21T09:06:03.026Z,99199.75
2022-08-21T09:08:50.324Z,99192.03
2022-08-21T09:11:29.535Z,99186.78
2022-08-21T09:14:15.803Z,99193.25
2022-08-21T09:16:55.788Z,99188.44
2022-08-21T09:19:51.510Z,99189.44
2022-08-21T09:22:31.770Z,99188.81
2022-08-21T09:25:21.491Z,99182.31
2022-08-21T09:27:51.740Z,99184.78
2022-08-21T09:30:22.602Z,99186.94
2022-08-21T09:32:49.283Z,99182.56
2022-08-21T09:35:18.800Z,99168.25
2022-08-21T09:37:53.594Z,99174.03
2022-08-21T09:40:42.138Z,99174.69
2022-08-21T09:43:26.310Z,99171.94
2022-08-21T09:46:04.246Z,99176.53
2022-08-21T09:48:32.497Z,99176.44
2022-08-21T09:51:10.361Z,99177.00
2022-08-21T09:53:43.423Z,99177.06
2022-08-21T09:56:44.713Z,99164.88
2022-08-21T09:59:38.890Z,99167.31
2022-08-21T10:02:27.176Z,99170.47
2022-08-21T10:05:18.511Z,99170.56
2022-08-21T10:07:45.027Z,99174.00
2022-08-21T10:10:19.115Z,99167.28
2022-08-21T10:13:12.920Z,99171.28
2022-08-21T10:15:57.568Z,99171.81
2022-08-21T10:18:30.617Z,99173.97
2022-08-21T10:21:23.068Z,99172.72
2022-08-21T10:24:30.578Z,99177.22
2022-08-21T10:27:22.271Z,99179.19
2022-08-21T10:29:52.856Z,99179.09
2022-08-21T10:32:29.416Z,99172.91
2022-08-21T10:35:15.777Z,99175.06
2022-08-21T10:38:39.182Z,99165.03
2022-08-21T10:41:27.039Z,99175.66
2022-08-21T10:44:06.032Z,99170.78
2022-08-21T10:47:01.216Z,99164.63
2022-08-21T10:49:38.731Z,99164.91
2022-08-21T10:52:20.571Z,99158.22
2022-08-21T10:54:51.976Z,99158.44
2022-08-21T10:57:32.285Z,99168.88
2022-08-21T11:00:13.505Z,99163.28
2022-08-21T11:03:26.712Z,99171.69
2022-08-21T11:05:56.693Z,99172.69
2022-08-21T11:08:30.364Z,99173.00
2022-08-21T11:11:13.433Z,99173.00
2022-08-21T11:13:55.205Z,99172.69
2022-08-21T11:16:41.339Z,99165.94
2022-08-21T11:19:29.157Z,99159.91
2022-08-21T11:22:19.717Z,99179.69
2022-08-21T11:24:51.506Z,99163.97
2022-08-21T11:27:44.057Z,99165.22
2022-08-21T11:30:11.252Z,99165.66
2022-08-21T11:33:04.335Z,99161.34
2022-08-21T11:35:43.684Z,99160.81
2022-08-21T11:38:27.370Z,99164.09
2022-08-21T11:41:25.282Z,99168.34
2022-08-21T11:44:01.015Z,99160.63
2022-08-21T11:46:55.801Z,99155.47
2022-08-21T11:49:41.378Z,99154.50
2022-08-21T11:52:35.889Z,99154.63
2022-08-21T11:55:28.780Z,99146.19
2022-08-21T11:58:02.142Z,99140.38
2022-08-21T12:00:57.104Z,99141.00
2022-08-21T12:03:29.410Z,99143.97
2022-08-21T12:06:03.046Z,99135.72
2022-08-21T12:08:32.526Z,99130.69
2022-08-21T12:11:05.144Z,99147.66
2022-08-21T12:13:40.659Z,99139.00
2022-08-21T12:16:29.663Z,99143.41
2022-08-21T12:19:12.440Z,99135.78
2022-08-21T12:22:12.549Z,99140.16
2022-08-21T12:24:47.251Z,99137.34
2022-08-21T12:27:45.358Z,99132.34
2022-08-21T12:30:37.265Z,99133.41
2022-08-21T12:33:07.713Z,99125.44
2022-08-21T12:35:34.141Z,99120.56
2022-08-21T12:38:08.252Z,99124.59
2022-08-21T12:40:44.177Z,99122.88
2022-08-21T12:43:25.330Z,99134.44
2022-08-21T12:45:53.302Z,99129.97
2022-08-21T12:48:41.089Z,99130.44
2022-08-21T12:51:13.054Z,99124.50
2022-08-21T12:53:42.774Z,99123.00
2022-08-21T12:56:15.558Z,99121.09
2022-08-21T12:58:48.201Z,99114.66
2022-08-21T13:01:26.529Z,99114.78
2022-08-21T13:04:04.848Z,99120.50
2022-08-21T13:06:38.846Z,99110.19
2022-08-21T13:09:10.055Z,99113.84
2022-08-21T13:11:37.191Z,99123.56
2022-08-21T13:14:22.004Z,99107.88
2022-08-21T13:16:48.705Z,99102.84
2022-08-21T13:19:23.774Z,99100.84
2022-08-21T13:21:51.332Z,99110.47
2022-08-21T13:24:42.682Z,99109.69
2022-08-21T13:27:26.574Z,99106.75
2022-08-21T13:30:18.441Z,99107.72
2022-08-21T13:32:49.644Z,99111.81
2022-08-21T13:35:51.587Z,99111.09
2022-08-21T13:38:21.326Z,99110.31
2022-08-21T13:40:57.938Z,99114.09
2022-08-21T13:43:29.672Z,99117.78
2022-08-21T13:45:57.103Z,99116.41
2022-08-21T13:48:27.319Z,99103.41
2022-08-21T13:50:55.066Z,99105.56
2022-08-21T13:53:28.746Z,99110.44
2022-08-21T13:56:00.388Z,99106.19
2022-08-21T13:58:44.267Z,99112.97
2022-08-21T14:01:26.266Z,99109.63
2022-08-21T14:03:58.502Z,99107.59
2022-08-21T14:06:28.268Z,99110.00
2022-08-21T14:09:01.341Z,99113.19
2022-08-21T14:11:33.727Z,99109.38
2022-08-21T14:14:05.228Z,99111.41
2022-08-21T14:16:47.242Z,99106.72
2022-08-21T14:19:44.467Z,99116.53
2022-08-21T14:22:23.345Z,99110.03
2022-08-21T14:24:55.103Z,99106.97
2022-08-21T14:27:24.172Z,99105.69
2022-08-21T14:29:50.801Z,99109.84
2022-08-21T14:32:29.302Z,99097.41
2022-08-21T14:34:57.942Z,99096.22
2022-08-21T14:37:25.497Z,99103.78
2022-08-21T14:39:52.050Z,99104.44
2022-08-21T14:42:19.022Z,99103.81
2022-08-21T14:44:45.588Z,99099.59
2022-08-21T14:47:12.168Z,99107.59
2022-08-21T14:49:38.879Z,99097.72
2022-08-21T14:52:05.539Z,99094.88
2022-08-21T14:54:32.988Z,99108.63
2022-08-21T14:57:03.882Z,99102.34
2022-08-21T14:59:33.737Z,99100.19
2022-08-21T15:02:00.332Z,99105.69
2022-08-21T15:04:26.844Z,99108.31
2022-08-21T15:06:53.407Z,99103.44
2022-08-21T15:09:19.875Z,99102.50
2022-08-21T15:11:46.484Z,99106.00
2022-08-21T15:14:20.904Z,99098.34
2022-08-21T15:16:48.748Z,99096.31
2022-08-21T15:19:15.271Z,99095.72
2022-08-21T15:21:41.756Z,99089.78
2022-08-21T15:24:08.355Z,99090.50
2022-08-21T15:26:36.131Z,99093.22
2022-08-21T15:29:03.628Z,99094.06
2022-08-21T15:31:33.494Z,99098.50
2022-08-21T15:34:00.070Z,99090.03
2022-08-21T15:36:26.564Z,99086.31
2022-08-21T15:38:53.163Z,99095.50
2022-08-21T15:41:19.936Z,99090.28
2022-08-21T15:43:50.106Z,99093.22
2022-08-21T15:46:18.536Z,99097.19
2022-08-21T15:48:47.164Z,99096.81
2022-08-21T15:51:15.657Z,99103.38
2022-08-21T15:53:43.095Z,99095.50
2022-08-21T15:56:18.449Z,99098.00
2022-08-21T15:58:45.065Z,99093.34
2022-08-21T16:01:11.780Z,99097.31
2022-08-21T16:03:39.570Z,99092.03
2022-08-21T16:06:06.390Z,99092.25
2022-08-21T16:08:32.950Z,99094.50
2022-08-21T16:11:01.212Z,99087.59
2022-08-21T16:13:33.485Z,99096.53
2022-08-21T16:16:00.297Z,99094.50
2022-08-21T16:18:27.756Z,99095.72
2022-08-21T16:20:54.555Z,99095.44
2022-08-21T16:23:21.257Z,99096.41
2022-08-21T16:25:48.245Z,99098.06
2022-08-21T16:28:18.033Z,99097.16
2022-08-21T16:30:48.337Z,99103.81
2022-08-21T16:33:23.154Z,99098.72
2022-08-21T16:35:49.692Z,99107.84
2022-08-21T16:38:16.279Z,99104.28
2022-08-21T16:40:43.340Z,99105.28
2022-08-21T16:43:10.296Z,99098.22
2022-08-21T16:45:37.732Z,99100.78
2022-08-21T16:48:09.647Z,99100.47
2022-08-21T16:50:37.889Z,99100.59
2022-08-21T16:53:05.581Z,99091.31
2022-08-21T16:55:32.697Z,99097.22
2022-08-21T16:58:01.034Z,99101.50
2022-08-21T17:00:27.562Z,99100.91
2022-08-21T17:02:55.745Z,99099.41
2022-08-21T17:05:23.001Z,99095.41
2022-08-21T17:07:49.649Z,99092.53
2022-08-21T17:10:17.576Z,99097.09
2022-08-21T17:12:56.570Z,99096.25
2022-08-21T17:15:27.464Z,99096.66
2022-08-21T17:17:56.425Z,99095.28
2022-08-21T17:20:23.418Z,99089.25
2022-08-21T17:22:50.104Z,99094.09
2022-08-21T17:25:16.955Z,99092.19
2022-08-21T17:27:44.461Z,99088.19
2022-08-21T17:30:13.084Z,99088.44
2022-08-21T17:32:39.853Z,99086.81
2022-08-21T17:35:07.277Z,99094.78
2022-08-21T17:37:34.039Z,99101.31
2022-08-21T17:40:00.694Z,99097.50
2022-08-21T17:42:27.479Z,99105.09
2022-08-21T17:44:56.400Z,99102.63
2022-08-21T17:47:23.806Z,99102.44
2022-08-21T17:49:50.827Z,99099.47
2022-08-21T17:52:17.424Z,99103.25
2022-08-21T17:54:44.167Z,99107.03
2022-08-21T17:57:23.463Z,99105.56
2022-08-21T17:59:52.375Z,99110.19
2022-08-21T18:02:23.064Z,99107.88
2022-08-21T18:04:50.928Z,99100.53
2022-08-21T18:07:31.862Z,99103.03
2022-08-21T18:10:00.109Z,99109.31
2022-08-21T18:12:26.853Z,99112.66
2022-08-21T18:14:53.516Z,99109.09
2022-08-21T18:17:23.793Z,99116.22
2022-08-21T18:19:50.896Z,99116.81
2022-08-21T18:22:17.613Z,99118.25
2022-08-21T18:24:44.381Z,99115.28
2022-08-21T18:27:13.286Z,99114.44
2022-08-21T18:29:47.229Z,99119.63
2022-08-21T18:32:30.521Z,99117.31
2022-08-21T18:35:00.618Z,99117.06
2022-08-21T18:37:27.341Z,99116.19
2022-08-21T18:39:53.974Z,99119.59
2022-08-21T18:42:28.351Z,99115.16
2022-08-21T18:45:01.004Z,99114.13
2022-08-21T18:47:45.694Z,99122.78
2022-08-21T18:50:16.188Z,99121.19
2022-08-21T18:52:52.912Z,99123.47
2022-08-21T18:55:21.608Z,99124.66
2022-08-21T18:57:48.404Z,99126.34
2022-08-21T19:00:20.266Z,99124.41
2022-08-21T19:02:47.282Z,99134.06
2022-08-21T19:05:16.219Z,99137.09
2022-08-21T19:07:44.150Z,99138.47
2022-08-21T19:10:29.271Z,99140.81
2022-08-21T19:12:59.821Z,99139.19
2022-08-21T19:15:27.445Z,99127.81
2022-08-21T19:17:55.931Z,99142.25
2022-08-21T19:20:35.078Z,99137.59
2022-08-21T19:23:01.836Z,99136.44
2022-08-21T19:25:33.239Z,99131.22
2022-08-21T19:28:03.748Z,99134.31
2022-08-21T19:30:41.446Z,99139.44
2022-08-21T19:33:09.418Z,99143.78
2022-08-21T19:35:36.228Z,99138.09
2022-08-21T19:38:02.738Z,99138.09
2022-08-21T19:40:31.864Z,99137.91
2022-08-21T19:42:58.811Z,99135.22
2022-08-21T19:45:28.926Z,99133.25
2022-08-21T19:48:14.947Z,99129.31
2022-08-21T19:50:45.602Z,99126.63
2022-08-21T19:53:12.385Z,99132.50
2022-08-21T19:55:43.929Z,99129.78
2022-08-21T19:58:23.970Z,99138.94
2022-08-21T20:00:50.587Z,99139.22
2022-08-21T20:03:17.998Z,99134.06
2022-08-21T20:05:51.541Z,99132.88
2022-08-21T20:08:27.930Z,99131.38
2022-08-21T20:10:58.755Z,99128.47
2022-08-21T20:13:33.977Z,99121.56
2022-08-21T20:16:13.548Z,99122.66
2022-08-21T20:18:41.697Z,99120.34
2022-08-21T20:21:11.532Z,99118.47
2022-08-21T20:23:48.691Z,99112.78
2022-08-21T20:26:22.113Z,99104.38
2022-08-21T20:28:51.661Z,99117.84
2022-08-21T20:31:19.692Z,99118.22
2022-08-21T20:33:49.596Z,99108.13
2022-08-21T20:36:17.215Z,99105.88
2022-08-21T20:38:44.922Z,99108.78
2022-08-21T20:41:17.801Z,99113.53
2022-08-21T20:43:50.196Z,99111.19
2022-08-21T20:46:23.065Z,99104.44
2022-08-21T20:48:51.496Z,99107.69
2022-08-21T20:51:24.765Z,99099.31
2022-08-21T20:54:24.045Z,99106.16
2022-08-21T20:57:33.703Z,99104.97
2022-08-21T21:00:14.485Z,99095.28
2022-08-21T21:03:00.116Z,99098.16
2022-08-21T21:05:31.859Z,99092.63
2022-08-21T21:08:04.561Z,99091.97
2022-08-21T21:10:37.206Z,99092.41
2022-08-21T21:13:13.457Z,99099.25
2022-08-21T21:15:45.339Z,99096.56
2022-08-21T21:18:26.072Z,99101.28
2022-08-21T21:21:32.883Z,99100.31
2022-08-21T21:24:07.476Z,99106.25
2022-08-21T21:26:48.930Z,99100.38
2022-08-21T21:29:29.849Z,99094.31
2022-08-21T21:31:58.443Z,99099.84
2022-08-21T21:34:27.950Z,99096.88
2022-08-21T21:37:02.599Z,99097.72
2022-08-21T21:39:37.694Z,99093.88
2022-08-21T21:45:35.782Z,99105.81
2022-08-21T21:48:11.801Z,99106.31
2022-08-21T21:51:01.051Z,99105.59
2022-08-21T21:53:53.759Z,99102.03
2022-08-21T21:56:33.156Z,99103.00
2022-08-21T21:59:18.725Z,99108.75
2022-08-21T22:02:20.943Z,99112.25
2022-08-21T22:05:03.886Z,99106.31
2022-08-21T22:07:38.253Z,99119.81
2022-08-21T22:10:48.542Z,99121.47
2022-08-21T22:13:38.614Z,99110.16
2022-08-21T22:16:08.919Z,99119.59
2022-08-21T22:18:45.520Z,99119.13
2022-08-21T22:24:23.290Z,99110.53
2022-08-21T22:26:54.969Z,99120.31
2022-08-21T22:29:24.692Z,99113.06
2022-08-21T22:32:11.051Z,99112.91
2022-08-21T22:34:40.653Z,99110.34
2022-08-21T22:37:13.146Z,99117.09
2022-08-21T22:39:46.212Z,99107.91
2022-08-21T22:42:21.242Z,99112.19
2022-08-21T22:44:56.675Z,99118.28
2022-08-21T22:47:36.896Z,99101.88
2022-08-21T22:50:26.611Z,99121.47
2022-08-21T22:53:03.771Z,99118.63
2022-08-21T22:55:35.187Z,99107.81
2022-08-21T22:58:08.000Z,99106.63
2022-08-21T23:00:44.777Z,99102.72
2022-08-21T23:03:21.820Z,99116.06
2022-08-21T23:05:50.706Z,99110.84
2022-08-21T23:08:24.174Z,99111.56
2022-08-21T23:11:00.060Z,99113.56
2022-08-21T23:13:33.379Z,99103.75
2022-08-21T23:16:19.388Z,99109.06
2022-08-21T23:18:56.969Z,99120.13
2022-08-21T23:22:20.280Z,99118.97
2022-08-21T23:25:00.472Z,99109.50
2022-08-21T23:27:43.243Z,99115.16
2022-08-21T23:30:22.751Z,99114.97
2022-08-21T23:32:55.711Z,99114.38
2022-08-21T23:35:59.893Z,99122.34
2022-08-21T23:39:02.703Z,99107.41
2022-08-21T23:41:51.387Z,99109.84
2022-08-21T23:44:27.223Z,99099.72
2022-08-21T23:47:18.251Z,99113.63
2022-08-21T23:50:14.046Z,99106.34
2022-08-21T23:53:05.028Z,99110.78
2022-08-21T23:55:49.815Z,99107.81
2022-08-21T23:58:45.147Z,99105.66
